Time;durP1;ratioP1;P1;durP2;ratioP2;P2;SDS_P1;SDS_P2;PMS_P1;PMS_P2;Temp;Humidity;BMP_temperature;BMP_pressure;BME280_temperature;BME280_humidity;BME280_pressure;Samples;Min_cycle;Max_cycle;Signal;HPM_P1;HPM_P2
2022/06/04 00:00:25;;;;;;;0.00;0.00;;;;;;;;;;5024678;28;20082;-58
2022/06/04 00:02:52;;;;;;;0.00;0.00;;;;;;;;;;5020561;28;20101;-58
2022/06/04 00:05:20;;;;;;;0.00;0.00;;;;;;;;;;5010803;28;20050;-59
2022/06/04 00:07:47;;;;;;;0.00;0.00;;;;;;;;;;5010708;28;20573;-58
2022/06/04 00:15:46;;;;;;;0.00;0.00;;;;;;;;;;5012749;28;20116;-58
2022/06/04 00:18:12;;;;;;;0.00;0.00;;;;;;;;;;5029102;28;20559;-58
2022/06/04 00:20:39;;;;;;;0.00;0.00;;;;;;;;;;5020463;28;20085;-58
2022/06/04 00:23:06;;;;;;;0.00;0.00;;;;;;;;;;5012373;28;20120;-58
2022/06/04 00:25:34;;;;;;;0.00;0.00;;;;;;;;;;5010458;28;20058;-58
2022/06/04 00:28:01;;;;;;;0.00;0.00;;;;;;;;;;5009169;28;20129;-58
2022/06/04 00:30:27;;;;;;;0.22;0.20;;;;;;;;;;5009994;28;20157;-58
2022/06/04 00:32:53;;;;;;;0.00;0.00;;;;;;;;;;5009516;28;20117;-59
2022/06/04 00:35:20;;;;;;;0.70;0.22;;;;;;;;;;5010661;28;20221;-58
2022/06/04 00:37:48;;;;;;;0.00;0.00;;;;;;;;;;5012268;28;20096;-58
2022/06/04 00:40:26;;;;;;;0.00;0.00;;;;;;;;;;5011169;28;20109;-58
2022/06/04 00:42:54;;;;;;;0.03;0.03;;;;;;;;;;5017501;28;20050;-58
2022/06/04 00:45:21;;;;;;;;;;;;;;;;;;5017424;28;20100;-58
2022/06/04 00:47:51;;;;;;;0.00;0.00;;;;;;;;;;5012524;28;45651;-58
2022/06/04 00:50:19;;;;;;;0.00;0.00;;;;;;;;;;5021740;28;20117;-58
2022/06/04 00:52:47;;;;;;;0.43;0.35;;;;;;;;;;5009914;28;20128;-58
2022/06/04 00:55:13;;;;;;;0.00;0.00;;;;;;;;;;5010071;28;20051;-58
2022/06/04 00:57:51;;;;;;;0.00;0.00;;;;;;;;;;5009367;28;20054;-58
2022/06/04 01:00:35;;;;;;;0.00;0.00;;;;;;;;;;5009254;28;20061;-59
2022/06/04 01:03:08;;;;;;;0.00;0.00;;;;;;;;;;5010250;28;20054;-59
2022/06/04 01:05:49;;;;;;;0.00;0.00;;;;;;;;;;5010182;28;20050;-58
2022/06/04 01:08:27;;;;;;;0.00;0.00;;;;;;;;;;5021131;28;20054;-58
2022/06/04 01:11:04;;;;;;;0.00;0.00;;;;;;;;;;5009822;28;20070;-58
2022/06/04 01:13:49;;;;;;;0.00;0.00;;;;;;;;;;5008769;28;20054;-58
2022/06/04 01:16:22;;;;;;;0.00;0.00;;;;;;;;;;5021572;28;20082;-58
2022/06/04 01:19:03;;;;;;;0.00;0.00;;;;;;;;;;5012695;28;20523;-58
2022/06/04 01:21:29;;;;;;;0.00;0.00;;;;;;;;;;5009458;28;20054;-58
2022/06/04 01:23:56;;;;;;;2.20;1.27;;;;;;;;;;5009262;28;20060;-58
2022/06/04 01:26:25;;;;;;;0.00;0.00;;;;;;;;;;5008867;28;20643;-58
2022/06/04 01:28:54;;;;;;;0.00;0.00;;;;;;;;;;5026670;28;20082;-58
2022/06/04 01:31:23;;;;;;;0.00;0.00;;;;;;;;;;5028379;28;20136;-58
2022/06/04 01:33:52;;;;;;;0.10;0.10;;;;;;;;;;5023867;28;20049;-58
2022/06/04 01:36:25;;;;;;;0.00;0.00;;;;;;;;;;5019869;28;20113;-59
2022/06/04 01:38:57;;;;;;;0.00;0.00;;;;;;;;;;5020008;28;20081;-58
2022/06/04 01:41:33;;;;;;;0.00;0.00;;;;;;;;;;5009918;28;20054;-58
2022/06/04 01:44:01;;;;;;;2.65;0.88;;;;;;;;;;5007474;28;20149;-58
2022/06/04 01:46:28;;;;;;;;;;;;;;;;;;5009064;28;20101;-59
2022/06/04 01:49:01;;;;;;;0.00;0.00;;;;;;;;;;5006987;28;44687;-58
2022/06/04 01:51:30;;;;;;;0.00;0.00;;;;;;;;;;5009106;28;20117;-58
2022/06/04 01:54:03;;;;;;;0.20;0.10;;;;;;;;;;5007931;28;20101;-58
2022/06/04 01:56:34;;;;;;;0.00;0.00;;;;;;;;;;5009199;28;20054;-58
2022/06/04 01:59:05;;;;;;;0.20;0.13;;;;;;;;;;5011553;28;20934;-58
2022/06/04 02:01:32;;;;;;;0.00;0.00;;;;;;;;;;5007854;28;20088;-58
2022/06/04 02:04:05;;;;;;;0.00;0.00;;;;;;;;;;5006997;28;20054;-58
2022/06/04 02:06:38;;;;;;;0.00;0.00;;;;;;;;;;5009276;28;20270;-58
2022/06/04 02:09:11;;;;;;;0.00;0.00;;;;;;;;;;5023596;28;20116;-58
2022/06/04 02:11:38;;;;;;;0.00;0.00;;;;;;;;;;5028597;28;20062;-58
2022/06/04 02:14:06;;;;;;;0.00;0.00;;;;;;;;;;5017418;28;20100;-58
2022/06/04 02:16:52;;;;;;;0.20;0.07;;;;;;;;;;5010815;28;20121;-58
2022/06/04 02:19:19;;;;;;;0.00;0.00;;;;;;;;;;5008397;28;20302;-58
2022/06/04 02:21:45;;;;;;;0.00;0.00;;;;;;;;;;5008607;28;20051;-58
2022/06/04 02:24:12;;;;;;;0.00;0.00;;;;;;;;;;5017681;28;20078;-58
2022/06/04 02:26:41;;;;;;;0.00;0.00;;;;;;;;;;5012036;28;20101;-58
2022/06/04 02:29:07;;;;;;;0.00;0.00;;;;;;;;;;5006886;28;20046;-58
2022/06/04 02:31:41;;;;;;;0.00;0.00;;;;;;;;;;5009089;28;20579;-58
2022/06/04 02:34:19;;;;;;;0.00;0.00;;;;;;;;;;5012101;28;20054;-58
2022/06/04 02:36:46;;;;;;;0.00;0.00;;;;;;;;;;5007402;28;20587;-58
2022/06/04 02:39:19;;;;;;;0.22;0.13;;;;;;;;;;5007952;28;20066;-58
2022/06/04 02:41:47;;;;;;;0.40;0.40;;;;;;;;;;5008530;28;20100;-58
2022/06/04 02:44:23;;;;;;;0.00;0.00;;;;;;;;;;5011454;28;20054;-58
2022/06/04 02:46:53;;;;;;;0.08;0.08;;;;;;;;;;5007800;28;20136;-58
2022/06/04 02:49:23;;;;;;;0.00;0.00;;;;;;;;;;5009101;28;20058;-58
2022/06/04 02:51:50;;;;;;;0.00;0.00;;;;;;;;;;5008118;28;20097;-58
2022/06/04 02:54:19;;;;;;;0.00;0.00;;;;;;;;;;5007315;28;20080;-58
2022/06/04 02:56:46;;;;;;;0.08;0.08;;;;;;;;;;5008697;28;20290;-58
2022/06/04 02:59:15;;;;;;;0.00;0.00;;;;;;;;;;5014464;28;20108;-58
2022/06/04 03:01:43;;;;;;;0.00;0.00;;;;;;;;;;5014417;28;20050;-58
2022/06/04 03:04:09;;;;;;;0.00;0.00;;;;;;;;;;5016771;28;20046;-58
2022/06/04 03:06:36;;;;;;;0.00;0.00;;;;;;;;;;5024747;28;20066;-58
2022/06/04 03:09:07;;;;;;;0.00;0.00;;;;;;;;;;5034122;28;20093;-58
2022/06/04 03:11:38;;;;;;;0.00;0.00;;;;;;;;;;5014134;28;20065;-58
2022/06/04 03:14:04;;;;;;;0.00;0.00;;;;;;;;;;5013539;28;20050;-58
2022/06/04 03:16:36;;;;;;;0.00;0.00;;;;;;;;;;5018276;28;20081;-58
2022/06/04 03:19:03;;;;;;;0.00;0.00;;;;;;;;;;5032441;28;20115;-58
2022/06/04 03:21:30;;;;;;;0.00;0.00;;;;;;;;;;5013828;28;20097;-58
2022/06/04 03:23:56;;;;;;;0.00;0.00;;;;;;;;;;5018117;28;20571;-58
2022/06/04 03:26:22;;;;;;;0.00;0.00;;;;;;;;;;5014830;28;20058;-58
2022/06/04 03:28:49;;;;;;;0.00;0.00;;;;;;;;;;5013473;28;20097;-58
2022/06/04 03:31:15;;;;;;;0.00;0.00;;;;;;;;;;5013472;28;20097;-58
2022/06/04 03:33:42;;;;;;;0.10;0.10;;;;;;;;;;5011650;28;20058;-59
2022/06/04 03:36:09;;;;;;;0.00;0.00;;;;;;;;;;5014664;28;20054;-58
2022/06/04 03:38:36;;;;;;;0.00;0.00;;;;;;;;;;5013816;28;20085;-58
2022/06/04 03:41:02;;;;;;;0.00;0.00;;;;;;;;;;5013444;28;20046;-58
2022/06/04 03:43:29;;;;;;;0.00;0.00;;;;;;;;;;5027204;28;20054;-58
2022/06/04 03:45:56;;;;;;;0.20;0.15;;;;;;;;;;5013177;28;20055;-58
2022/06/04 03:48:22;;;;;;;0.00;0.00;;;;;;;;;;5031546;28;20054;-58
2022/06/04 03:50:49;;;;;;;0.00;0.00;;;;;;;;;;5017962;28;20117;-58
2022/06/04 03:53:15;;;;;;;0.00;0.00;;;;;;;;;;5013815;28;20046;-58
2022/06/04 03:55:41;;;;;;;0.00;0.00;;;;;;;;;;5013526;28;20054;-58
2022/06/04 03:58:08;;;;;;;0.00;0.00;;;;;;;;;;5018358;28;20477;-58
2022/06/04 04:00:36;;;;;;;0.00;0.00;;;;;;;;;;5013033;28;20480;-58
2022/06/04 04:03:09;;;;;;;0.00;0.00;;;;;;;;;;5013730;28;20528;-58
2022/06/04 04:05:37;;;;;;;0.00;0.00;;;;;;;;;;5013653;28;20058;-58
2022/06/04 04:08:05;;;;;;;1.35;0.50;;;;;;;;;;5012170;28;20062;-58
2022/06/04 04:10:32;;;;;;;0.25;0.25;;;;;;;;;;5009134;28;20512;-58
2022/06/04 04:12:59;;;;;;;0.40;0.10;;;;;;;;;;5010000;28;20086;-58
2022/06/04 04:15:26;;;;;;;0.00;0.00;;;;;;;;;;5010261;28;20472;-58
2022/06/04 04:17:52;;;;;;;0.00;0.00;;;;;;;;;;5010196;28;20058;-58
2022/06/04 04:20:21;;;;;;;0.00;0.00;;;;;;;;;;5008196;28;20117;-58
2022/06/04 04:22:47;;;;;;;0.10;0.10;;;;;;;;;;5009635;28;20521;-58
2022/06/04 04:25:16;;;;;;;0.00;0.00;;;;;;;;;;5012764;28;20147;-58
2022/06/04 04:27:42;;;;;;;0.00;0.00;;;;;;;;;;5028661;28;20112;-58
2022/06/04 04:30:10;;;;;;;0.17;0.10;;;;;;;;;;5030460;28;20484;-58
2022/06/04 04:32:36;;;;;;;0.40;0.32;;;;;;;;;;5013543;28;20141;-58
2022/06/04 04:35:05;;;;;;;1.45;0.57;;;;;;;;;;5026192;28;20144;-58
2022/06/04 04:37:31;;;;;;;0.00;0.00;;;;;;;;;;5028001;28;20065;-58
2022/06/04 04:39:58;;;;;;;0.17;0.05;;;;;;;;;;5017160;28;20054;-58
2022/06/04 04:42:24;;;;;;;0.20;0.13;;;;;;;;;;5008720;28;20050;-58
2022/06/04 04:44:51;;;;;;;0.00;0.00;;;;;;;;;;5024624;28;20061;-58
2022/06/04 04:47:17;;;;;;;0.20;0.03;;;;;;;;;;5021239;28;20082;-58
2022/06/04 04:49:44;;;;;;;0.10;0.10;;;;;;;;;;5022774;28;20062;-58
2022/06/04 04:52:10;;;;;;;0.00;0.00;;;;;;;;;;5018838;28;20113;-58
2022/06/04 04:54:36;;;;;;;0.00;0.00;;;;;;;;;;5020263;28;20050;-58
2022/06/04 04:57:03;;;;;;;0.00;0.00;;;;;;;;;;5016668;28;20058;-59
2022/06/04 04:59:29;;;;;;;0.52;0.52;;;;;;;;;;5012583;28;20580;-58
2022/06/04 05:01:57;;;;;;;0.00;0.00;;;;;;;;;;5014880;28;20108;-58
2022/06/04 05:04:23;;;;;;;0.10;0.10;;;;;;;;;;5013102;28;20062;-58
2022/06/04 05:06:50;;;;;;;0.00;0.00;;;;;;;;;;5028311;28;20571;-58
2022/06/04 05:09:16;;;;;;;0.00;0.00;;;;;;;;;;5021567;28;20512;-58
2022/06/04 05:11:42;;;;;;;0.13;0.08;;;;;;;;;;5026646;28;20595;-58
2022/06/04 05:14:16;;;;;;;0.00;0.00;;;;;;;;;;5029660;28;20125;-58
2022/06/04 05:16:42;;;;;;;0.00;0.00;;;;;;;;;;5021706;28;20054;-58
2022/06/04 05:19:09;;;;;;;0.00;0.00;;;;;;;;;;5009510;28;20137;-58
2022/06/04 05:21:37;;;;;;;0.00;0.00;;;;;;;;;;5007949;28;20121;-58
2022/06/04 05:24:04;;;;;;;0.00;0.00;;;;;;;;;;5009654;28;20051;-58
2022/06/04 05:26:31;;;;;;;0.00;0.00;;;;;;;;;;5009789;28;20105;-58
2022/06/04 05:28:57;;;;;;;0.00;0.00;;;;;;;;;;5013351;28;20118;-58
2022/06/04 05:31:24;;;;;;;0.80;0.80;;;;;;;;;;5026570;28;20081;-59
2022/06/04 05:33:50;;;;;;;0.00;0.00;;;;;;;;;;5028269;28;20053;-58
2022/06/04 05:36:17;;;;;;;0.00;0.00;;;;;;;;;;5028864;28;20058;-58
2022/06/04 05:38:43;;;;;;;0.00;0.00;;;;;;;;;;5025669;28;20517;-58
2022/06/04 05:41:13;;;;;;;0.00;0.00;;;;;;;;;;5018971;28;20093;-58
2022/06/04 05:43:39;;;;;;;0.00;0.00;;;;;;;;;;5026828;28;20058;-58
2022/06/04 05:46:11;;;;;;;1.45;1.35;;;;;;;;;;5028177;28;20046;-58
2022/06/04 05:48:38;;;;;;;0.08;0.08;;;;;;;;;;5026178;28;20587;-58
2022/06/04 05:51:05;;;;;;;0.55;0.17;;;;;;;;;;5009056;28;20125;-58
2022/06/04 05:53:31;;;;;;;0.05;0.05;;;;;;;;;;5008448;28;20055;-58
2022/06/04 05:55:58;;;;;;;0.00;0.00;;;;;;;;;;5009768;28;20109;-58
2022/06/04 05:58:24;;;;;;;0.00;0.00;;;;;;;;;;5009355;28;20093;-58
2022/06/04 06:00:57;;;;;;;0.00;0.00;;;;;;;;;;5008088;28;20050;-58
2022/06/04 06:03:23;;;;;;;0.00;0.00;;;;;;;;;;5009121;28;20066;-58
2022/06/04 06:05:50;;;;;;;0.00;0.00;;;;;;;;;;5008296;28;20105;-57
2022/06/04 06:08:16;;;;;;;0.00;0.00;;;;;;;;;;5008354;28;20055;-58
2022/06/04 06:10:46;;;;;;;0.00;0.00;;;;;;;;;;5008303;28;20059;-58
2022/06/04 06:13:12;;;;;;;0.00;0.00;;;;;;;;;;5018759;28;20104;-58
2022/06/04 06:15:38;;;;;;;0.00;0.00;;;;;;;;;;5025244;28;20054;-58
2022/06/04 06:18:05;;;;;;;1.58;0.35;;;;;;;;;;5017253;28;20050;-58
2022/06/04 06:20:32;;;;;;;0.10;0.05;;;;;;;;;;5018153;28;20085;-58
2022/06/04 06:22:59;;;;;;;0.00;0.00;;;;;;;;;;5027287;28;20570;-58
2022/06/04 06:25:26;;;;;;;0.30;0.20;;;;;;;;;;5027465;28;20053;-58
2022/06/04 06:27:52;;;;;;;0.00;0.00;;;;;;;;;;5015889;28;20949;-58
2022/06/04 06:30:18;;;;;;;0.47;0.25;;;;;;;;;;5015109;28;20054;-55
2022/06/04 06:32:46;;;;;;;0.20;0.20;;;;;;;;;;5007457;28;20054;-56
2022/06/04 06:35:12;;;;;;;0.00;0.00;;;;;;;;;;5015700;28;20054;-55
2022/06/04 06:37:39;;;;;;;0.00;0.00;;;;;;;;;;5007336;28;20090;-55
2022/06/04 06:40:06;;;;;;;0.88;0.10;;;;;;;;;;5013363;28;20902;-54
2022/06/04 06:42:33;;;;;;;0.00;0.00;;;;;;;;;;5011121;28;20046;-56
2022/06/04 06:45:02;;;;;;;0.00;0.00;;;;;;;;;;5019114;28;20514;-55
2022/06/04 06:47:31;;;;;;;0.40;0.28;;;;;;;;;;5019548;28;20814;-55
2022/06/04 06:49:57;;;;;;;0.00;0.00;;;;;;;;;;5018855;28;20094;-55
2022/06/04 06:52:23;;;;;;;0.00;0.00;;;;;;;;;;5020515;28;20057;-56
2022/06/04 06:54:50;;;;;;;0.10;0.10;;;;;;;;;;5013796;28;20509;-54
2022/06/04 06:57:17;;;;;;;0.00;0.00;;;;;;;;;;5012539;28;20061;-54
2022/06/04 06:59:46;;;;;;;0.00;0.00;;;;;;;;;;5026855;28;20104;-57
2022/06/04 07:02:13;;;;;;;0.70;0.55;;;;;;;;;;5027916;28;20591;-57
2022/06/04 07:04:39;;;;;;;0.08;0.08;;;;;;;;;;5026859;28;20112;-57
2022/06/04 07:07:06;;;;;;;0.00;0.00;;;;;;;;;;5011702;28;20121;-58
2022/06/04 07:09:35;;;;;;;0.00;0.00;;;;;;;;;;5008316;28;20090;-55
2022/06/04 07:12:02;;;;;;;3.40;0.95;;;;;;;;;;5008183;28;20109;-55
2022/06/04 07:14:28;;;;;;;0.32;0.15;;;;;;;;;;5009712;28;20113;-55
2022/06/04 07:16:56;;;;;;;0.00;0.00;;;;;;;;;;5008975;28;20054;-55
2022/06/04 07:19:23;;;;;;;;;;;;;;;;;;5026685;28;20050;-56
2022/06/04 07:21:51;;;;;;;0.00;0.00;;;;;;;;;;5014976;28;45838;-55
2022/06/04 07:24:17;;;;;;;0.00;0.00;;;;;;;;;;5014640;28;20054;-56
2022/06/04 07:26:43;;;;;;;9.02;0.90;;;;;;;;;;5017314;28;20097;-56
2022/06/04 07:29:11;;;;;;;0.20;0.13;;;;;;;;;;5019462;28;20054;-58
2022/06/04 07:31:38;;;;;;;0.00;0.00;;;;;;;;;;5013226;28;20173;-57
2022/06/04 07:34:05;;;;;;;0.00;0.00;;;;;;;;;;5024614;28;20112;-58
2022/06/04 07:36:33;;;;;;;0.13;0.13;;;;;;;;;;5022947;28;20057;-55
2022/06/04 07:39:00;;;;;;;0.00;0.00;;;;;;;;;;5019994;28;20135;-54
2022/06/04 07:41:28;;;;;;;0.00;0.00;;;;;;;;;;5026833;28;20925;-54
2022/06/04 07:43:55;;;;;;;0.00;0.00;;;;;;;;;;5027531;28;20090;-55
2022/06/04 07:46:22;;;;;;;0.00;0.00;;;;;;;;;;5024504;28;20061;-52
2022/06/04 07:48:49;;;;;;;0.00;0.00;;;;;;;;;;5029321;28;20061;-55
2022/06/04 07:51:16;;;;;;;0.10;0.10;;;;;;;;;;5014015;28;20082;-55
2022/06/04 07:53:43;;;;;;;0.00;0.00;;;;;;;;;;5024419;28;20073;-52
2022/06/04 07:56:10;;;;;;;0.73;0.40;;;;;;;;;;5024962;28;20109;-55
2022/06/04 07:58:37;;;;;;;0.00;0.00;;;;;;;;;;5029075;28;20057;-54
2022/06/04 08:01:05;;;;;;;0.00;0.00;;;;;;;;;;5011352;28;20505;-56
2022/06/04 08:03:33;;;;;;;0.00;0.00;;;;;;;;;;5013675;28;20062;-53
2022/06/04 08:06:00;;;;;;;0.15;0.15;;;;;;;;;;5027229;28;20566;-54
2022/06/04 08:08:27;;;;;;;0.00;0.00;;;;;;;;;;5018929;28;20109;-52
2022/06/04 08:10:53;;;;;;;0.20;0.10;;;;;;;;;;5013568;28;20464;-52
2022/06/04 08:15:46;;;;;;;0.00;0.00;;;;;;;;;;5012069;28;20082;-54
2022/06/04 08:18:12;;;;;;;0.05;0.05;;;;;;;;;;5025796;28;20062;-56
2022/06/04 08:20:42;;;;;;;0.68;0.68;;;;;;;;;;5014250;28;20481;-55
2022/06/04 08:23:09;;;;;;;0.00;0.00;;;;;;;;;;5031015;28;20108;-55
2022/06/04 08:25:39;;;;;;;0.00;0.00;;;;;;;;;;5026305;28;20113;-54
2022/06/04 08:28:06;;;;;;;0.00;0.00;;;;;;;;;;5016969;28;20058;-56
2022/06/04 08:30:32;;;;;;;0.00;0.00;;;;;;;;;;5010362;28;20558;-53
2022/06/04 08:32:59;;;;;;;0.00;0.00;;;;;;;;;;5018680;28;20054;-54
2022/06/04 08:35:25;;;;;;;0.05;0.03;;;;;;;;;;5029805;28;20108;-54
2022/06/04 08:37:51;;;;;;;0.00;0.00;;;;;;;;;;5029414;28;20058;-54
2022/06/04 08:40:29;;;;;;;0.00;0.00;;;;;;;;;;5017690;28;20042;-56
2022/06/04 08:42:58;;;;;;;0.20;0.10;;;;;;;;;;5026246;28;20112;-53
2022/06/04 08:45:25;;;;;;;0.00;0.00;;;;;;;;;;5028835;28;20128;-54
2022/06/04 08:47:52;;;;;;;0.00;0.00;;;;;;;;;;5010186;28;20086;-54
2022/06/04 08:50:20;;;;;;;0.00;0.00;;;;;;;;;;5009315;28;20050;-58
2022/06/04 08:52:46;;;;;;;0.20;0.10;;;;;;;;;;5011245;28;20058;-56
2022/06/04 08:58:14;;;;;;;0.10;0.10;;;;;;;;;;5009340;28;20073;-55
2022/06/04 09:00:48;;;;;;;0.00;0.00;;;;;;;;;;5011752;28;20101;-56
2022/06/04 09:03:19;;;;;;;0.00;0.00;;;;;;;;;;5014415;28;20057;-57
2022/06/04 09:06:19;;;;;;;0.00;0.00;;;;;;;;;;5028317;28;20054;-56
2022/06/04 09:08:45;;;;;;;0.00;0.00;;;;;;;;;;5028085;28;20104;-57
2022/06/04 09:11:21;;;;;;;0.00;0.00;;;;;;;;;;5025412;28;20062;-55
2022/06/04 09:14:11;;;;;;;0.13;0.10;;;;;;;;;;5018165;28;20054;-55
2022/06/04 09:16:39;;;;;;;0.05;0.05;;;;;;;;;;5028247;28;20085;-56
2022/06/04 09:19:05;;;;;;;;;;;;;;;;;;5029286;28;20066;-56
2022/06/04 09:21:35;;;;;;;2.60;0.82;;;;;;;;;;5011319;28;45317;-53
2022/06/04 09:24:02;;;;;;;0.00;0.00;;;;;;;;;;5015143;28;20058;-61
2022/06/04 09:26:28;;;;;;;0.00;0.00;;;;;;;;;;5013627;28;20051;-61
2022/06/04 09:29:01;;;;;;;0.00;0.00;;;;;;;;;;5021173;28;20054;-60
2022/06/04 09:31:36;;;;;;;0.43;0.15;;;;;;;;;;5014500;28;20109;-60
2022/06/04 09:34:22;;;;;;;0.08;0.08;;;;;;;;;;5011670;28;20109;-52
2022/06/04 09:36:50;;;;;;;0.20;0.20;;;;;;;;;;5014762;28;20112;-52
2022/06/04 09:39:20;;;;;;;0.00;0.00;;;;;;;;;;5013015;28;20058;-52
2022/06/04 09:41:52;;;;;;;0.00;0.00;;;;;;;;;;5009546;28;20055;-51
2022/06/04 09:44:19;;;;;;;0.00;0.00;;;;;;;;;;5009080;28;20105;-51
2022/06/04 09:46:47;;;;;;;0.05;0.05;;;;;;;;;;5008442;28;20059;-52
2022/06/04 09:49:28;;;;;;;0.05;0.03;;;;;;;;;;5008488;28;20575;-54
2022/06/04 09:51:55;;;;;;;0.00;0.00;;;;;;;;;;5008710;28;20058;-54
2022/06/04 09:54:33;;;;;;;0.00;0.00;;;;;;;;;;5008827;28;20055;-54
2022/06/04 09:57:02;;;;;;;0.20;0.20;;;;;;;;;;5008661;28;20108;-53
2022/06/04 09:59:30;;;;;;;0.10;0.00;;;;;;;;;;5008913;28;20596;-52
2022/06/04 10:01:59;;;;;;;0.10;0.10;;;;;;;;;;5009565;28;20105;-55
2022/06/04 10:04:35;;;;;;;0.00;0.00;;;;;;;;;;5028946;28;20509;-55
2022/06/04 10:07:10;;;;;;;0.00;0.00;;;;;;;;;;5008508;28;20085;-55
2022/06/04 10:09:56;;;;;;;0.10;0.10;;;;;;;;;;5009188;28;20105;-53
2022/06/04 10:15:44;;;;;;;0.00;0.00;;;;;;;;;;5007441;28;20054;-57
2022/06/04 10:18:15;;;;;;;0.05;0.03;;;;;;;;;;5008824;28;20054;-60
2022/06/04 10:20:50;;;;;;;0.47;0.28;;;;;;;;;;5007733;28;20090;-60
2022/06/04 10:23:16;;;;;;;0.00;0.00;;;;;;;;;;5022277;28;20092;-60
2022/06/04 10:25:52;;;;;;;0.00;0.00;;;;;;;;;;5027165;28;20153;-60
2022/06/04 10:28:38;;;;;;;2.63;0.65;;;;;;;;;;5028445;28;20058;-60
2022/06/04 10:31:11;;;;;;;0.00;0.00;;;;;;;;;;5027107;28;20116;-60
2022/06/04 10:33:50;;;;;;;0.00;0.00;;;;;;;;;;5027179;28;20061;-60
2022/06/04 10:36:17;;;;;;;1.10;0.13;;;;;;;;;;5025832;28;20112;-60
2022/06/04 10:38:55;;;;;;;0.55;0.20;;;;;;;;;;5007499;28;20054;-60
2022/06/04 10:41:54;;;;;;;0.00;0.00;;;;;;;;;;5008616;28;20090;-60
2022/06/04 10:44:21;;;;;;;0.00;0.00;;;;;;;;;;5016809;28;20152;-60
2022/06/04 10:47:06;;;;;;;0.08;0.08;;;;;;;;;;5006724;28;20555;-60
2022/06/04 10:49:32;;;;;;;0.00;0.00;;;;;;;;;;5008205;28;20063;-59
2022/06/04 10:52:16;;;;;;;0.00;0.00;;;;;;;;;;5008520;28;20513;-60
2022/06/04 10:54:48;;;;;;;0.35;0.30;;;;;;;;;;5007641;28;20117;-60
2022/06/04 10:57:23;;;;;;;0.00;0.00;;;;;;;;;;5008344;28;20054;-60
2022/06/04 10:59:59;;;;;;;0.00;0.00;;;;;;;;;;5022552;28;20058;-60
2022/06/04 11:02:33;;;;;;;0.10;0.10;;;;;;;;;;5024600;28;20623;-60
2022/06/04 11:05:03;;;;;;;0.00;0.00;;;;;;;;;;5007878;28;20058;-60
2022/06/04 11:07:37;;;;;;;0.00;0.00;;;;;;;;;;5008518;28;20113;-56
2022/06/04 11:10:11;;;;;;;0.00;0.00;;;;;;;;;;5007886;28;20050;-60
2022/06/04 11:13:04;;;;;;;0.25;0.00;;;;;;;;;;5010800;28;20105;-60
2022/06/04 11:15:34;;;;;;;0.20;0.20;;;;;;;;;;5024208;28;20054;-60
2022/06/04 11:18:01;;;;;;;0.00;0.00;;;;;;;;;;5036027;28;20048;-60
2022/06/04 11:20:33;;;;;;;0.20;0.05;;;;;;;;;;5019147;28;20132;-60
2022/06/04 11:23:08;;;;;;;0.00;0.00;;;;;;;;;;5022574;28;20057;-60
2022/06/04 11:25:38;;;;;;;0.00;0.00;;;;;;;;;;5030633;28;20108;-60
2022/06/04 11:28:07;;;;;;;0.00;0.00;;;;;;;;;;5024872;28;20109;-60
2022/06/04 11:30:39;;;;;;;0.00;0.00;;;;;;;;;;5010909;28;20094;-59
2022/06/04 11:33:17;;;;;;;0.00;0.00;;;;;;;;;;5010652;28;20660;-60
2022/06/04 11:35:53;;;;;;;0.00;0.00;;;;;;;;;;5010348;28;20082;-60
2022/06/04 11:38:20;;;;;;;1.60;0.47;;;;;;;;;;5022204;28;20108;-60
2022/06/04 11:40:53;;;;;;;0.10;0.10;;;;;;;;;;5013576;28;20054;-60
2022/06/04 11:43:31;;;;;;;0.00;0.00;;;;;;;;;;5023395;28;20447;-59
2022/06/04 11:45:57;;;;;;;0.00;0.00;;;;;;;;;;5030534;28;20518;-60
2022/06/04 11:48:24;;;;;;;0.00;0.00;;;;;;;;;;5030613;28;20105;-60
2022/06/04 11:51:03;;;;;;;0.00;0.00;;;;;;;;;;5012813;28;20121;-59
2022/06/04 11:53:41;;;;;;;0.05;0.05;;;;;;;;;;5015314;28;20152;-60
2022/06/04 11:56:43;;;;;;;0.00;0.00;;;;;;;;;;5012596;28;20481;-60
2022/06/04 11:59:12;;;;;;;0.63;0.30;;;;;;;;;;5028171;28;20062;-60
2022/06/04 12:01:38;;;;;;;0.00;0.00;;;;;;;;;;5013717;28;20560;-60
2022/06/04 12:04:19;;;;;;;0.03;0.03;;;;;;;;;;5014607;28;20057;-52
2022/06/04 12:06:51;;;;;;;0.22;0.20;;;;;;;;;;5013169;28;20093;-52
2022/06/04 12:09:24;;;;;;;0.00;0.00;;;;;;;;;;5011116;28;20137;-52
2022/06/04 12:11:57;;;;;;;0.10;0.10;;;;;;;;;;5010506;28;20058;-52
2022/06/04 12:14:47;;;;;;;0.00;0.00;;;;;;;;;;5013924;28;20084;-60
2022/06/04 12:17:13;;;;;;;0.00;0.00;;;;;;;;;;5028946;28;20057;-60
2022/06/04 12:25:16;;;;;;;0.13;0.13;;;;;;;;;;5019961;28;20574;-60
2022/06/04 12:27:42;;;;;;;;;;;;;;;;;;5030526;28;20061;-59
2022/06/04 12:30:17;;;;;;;0.00;0.00;;;;;;;;;;5027848;28;44073;-60
2022/06/04 12:32:54;;;;;;;0.20;0.10;;;;;;;;;;5030025;28;20058;-60
2022/06/04 12:35:22;;;;;;;0.05;0.03;;;;;;;;;;5014602;28;20061;-60
2022/06/04 12:37:54;;;;;;;0.55;0.35;;;;;;;;;;5010122;28;20480;-61
2022/06/04 12:40:22;;;;;;;0.30;0.25;;;;;;;;;;5009233;28;20055;-60
2022/06/04 12:43:06;;;;;;;0.00;0.00;;;;;;;;;;5029985;28;20065;-61
2022/06/04 12:45:36;;;;;;;0.30;0.17;;;;;;;;;;5012864;28;20223;-61
2022/06/04 12:48:18;;;;;;;0.28;0.20;;;;;;;;;;5009838;28;20122;-60
2022/06/04 12:50:47;;;;;;;0.00;0.00;;;;;;;;;;5010295;28;20090;-60
2022/06/04 12:53:17;;;;;;;0.00;0.00;;;;;;;;;;5029493;28;20062;-60
2022/06/04 12:56:09;;;;;;;1.45;0.43;;;;;;;;;;5027599;28;20587;-60
2022/06/04 12:58:53;;;;;;;0.45;0.20;;;;;;;;;;5029113;28;20122;-60
2022/06/04 13:01:21;;;;;;;0.03;0.03;;;;;;;;;;5008775;28;20058;-60
2022/06/04 13:04:03;;;;;;;2.08;0.47;;;;;;;;;;5013422;28;20440;-60
2022/06/04 13:06:34;;;;;;;0.00;0.00;;;;;;;;;;5023623;28;20521;-60
2022/06/04 13:09:19;;;;;;;0.00;0.00;;;;;;;;;;5011028;28;20070;-60
2022/06/04 13:11:45;;;;;;;0.03;0.03;;;;;;;;;;5027772;28;21158;-60
2022/06/04 13:14:11;;;;;;;0.10;0.10;;;;;;;;;;5025520;28;20058;-60
2022/06/04 13:17:04;;;;;;;0.28;0.28;;;;;;;;;;5016903;28;20504;-60
2022/06/04 13:19:36;;;;;;;0.10;0.10;;;;;;;;;;5027934;28;20108;-60
2022/06/04 13:22:04;;;;;;;0.13;0.03;;;;;;;;;;5010166;28;20062;-60
2022/06/04 13:24:32;;;;;;;0.52;0.40;;;;;;;;;;5016815;28;20108;-60
2022/06/04 13:27:01;;;;;;;0.00;0.00;;;;;;;;;;5010159;28;20082;-60
2022/06/04 13:29:32;;;;;;;0.10;0.10;;;;;;;;;;5009711;28;20127;-60
2022/06/04 13:32:00;;;;;;;0.38;0.35;;;;;;;;;;5009571;28;20505;-60
2022/06/04 13:34:28;;;;;;;0.05;0.05;;;;;;;;;;5009021;28;20054;-60
2022/06/04 13:36:59;;;;;;;0.30;0.30;;;;;;;;;;5008387;28;20560;-60
2022/06/04 13:39:25;;;;;;;0.00;0.00;;;;;;;;;;5008505;28;20054;-60
2022/06/04 13:42:05;;;;;;;0.05;0.05;;;;;;;;;;5007544;28;20090;-60
2022/06/04 13:44:37;;;;;;;0.03;0.03;;;;;;;;;;5008296;28;20556;-60
2022/06/04 13:47:10;;;;;;;0.00;0.00;;;;;;;;;;5007741;28;20140;-60
2022/06/04 13:49:37;;;;;;;0.20;0.13;;;;;;;;;;5008821;28;20150;-60
2022/06/04 13:52:10;;;;;;;0.32;0.30;;;;;;;;;;5008750;28;20101;-60
2022/06/04 13:54:38;;;;;;;0.00;0.00;;;;;;;;;;5009536;28;20063;-60
2022/06/04 13:57:14;;;;;;;0.00;0.00;;;;;;;;;;5008763;28;20085;-60
2022/06/04 13:59:45;;;;;;;0.17;0.17;;;;;;;;;;5008775;28;20054;-60
2022/06/04 14:02:14;;;;;;;0.22;0.20;;;;;;;;;;5008542;28;20102;-60
2022/06/04 14:07:34;;;;;;;0.00;0.00;;;;;;;;;;5008401;28;20161;-60
2022/06/04 14:10:00;;;;;;;0.08;0.08;;;;;;;;;;5008185;28;20058;-60
2022/06/04 14:12:40;;;;;;;0.10;0.10;;;;;;;;;;5008067;28;20610;-60
2022/06/04 14:15:12;;;;;;;0.10;0.10;;;;;;;;;;5008582;28;20101;-60
2022/06/04 14:17:38;;;;;;;0.65;0.65;;;;;;;;;;5008226;28;20109;-60
2022/06/04 14:20:05;;;;;;;1.95;0.30;;;;;;;;;;5007979;28;20062;-60
2022/06/04 14:22:50;;;;;;;0.55;0.20;;;;;;;;;;5008682;28;20489;-60
2022/06/04 14:25:16;;;;;;;0.00;0.00;;;;;;;;;;5007797;28;20105;-61
2022/06/04 14:27:52;;;;;;;0.00;0.00;;;;;;;;;;5008505;28;20086;-61
2022/06/04 14:30:26;;;;;;;0.20;0.20;;;;;;;;;;5007636;28;20545;-61
2022/06/04 14:32:53;;;;;;;0.20;0.17;;;;;;;;;;5007873;28;20109;-60
2022/06/04 14:35:21;;;;;;;0.20;0.20;;;;;;;;;;5008302;28;20062;-60
2022/06/04 14:37:50;;;;;;;2.35;0.30;;;;;;;;;;5008352;28;20125;-60
2022/06/04 14:40:20;;;;;;;0.00;0.00;;;;;;;;;;5008080;28;20050;-60
2022/06/04 14:43:05;;;;;;;0.13;0.13;;;;;;;;;;5007308;28;20540;-60
2022/06/04 14:45:34;;;;;;;1.27;0.82;;;;;;;;;;5010325;28;20061;-61
2022/06/04 14:48:36;;;;;;;0.17;0.17;;;;;;;;;;5027728;28;20054;-60
2022/06/04 14:51:03;;;;;;;0.52;0.35;;;;;;;;;;5024880;28;20124;-60
2022/06/04 14:53:30;;;;;;;0.15;0.15;;;;;;;;;;5027408;28;20140;-60
2022/06/04 14:56:26;;;;;;;2.55;0.75;;;;;;;;;;5027763;28;20591;-60
2022/06/04 14:59:11;;;;;;;0.00;0.00;;;;;;;;;;5027647;28;20917;-61
2022/06/04 15:02:04;;;;;;;0.17;0.17;;;;;;;;;;5028448;28;20428;-60
2022/06/04 15:04:58;;;;;;;5.13;2.85;;;;;;;;;;5025525;28;20061;-60
2022/06/04 15:07:30;;;;;;;0.00;0.00;;;;;;;;;;5027698;28;20058;-60
2022/06/04 15:10:14;;;;;;;0.03;0.03;;;;;;;;;;5027715;28;20803;-60
2022/06/04 15:12:53;;;;;;;0.45;0.45;;;;;;;;;;5027205;28;20109;-60
2022/06/04 15:15:25;;;;;;;0.20;0.20;;;;;;;;;;5027608;28;20117;-60
2022/06/04 15:17:58;;;;;;;0.63;0.32;;;;;;;;;;5027011;28;20058;-60
2022/06/04 15:20:43;;;;;;;0.20;0.20;;;;;;;;;;5028050;28;20061;-60
2022/06/04 15:23:33;;;;;;;0.00;0.00;;;;;;;;;;5027459;28;20112;-61
2022/06/04 15:26:21;;;;;;;0.30;0.20;;;;;;;;;;5026191;28;20148;-61
2022/06/04 15:34:37;;;;;;;0.20;0.20;;;;;;;;;;5027295;28;20054;-61